Aviation Digital Data Service (ADDS)

Output produced by METARs form (1203 UTC 16 July 2019)
found at http://www.aviationweather.gov/metar/data/
 
EFET 161150Z AUTO 07003KT CAVOK 12/04 Q1014
EFHA 161150Z 04007KT 010V070 9999 VCSH SCT061CB BKN108 19/12 Q1008
TAF EFHA 161137Z 1612/1614 08007KT 9999 SCT035 
     TEMPO 1612/1614 SHRA BKN035CB 
     PROB40 
     TEMPO 1612/1614 5000 TSRA
       
EFHK 161150Z 11014KT 9999 VCSH FEW030 FEW050CB 20/11 Q1007 TEMPO 7000 SHRA
TAF EFHK 161135Z 1612/1712 11012KT 9999 FEW025 SCT050CB BKN070 
     TEMPO 1612/1615 7000 SHRA 
     PROB30 
     TEMPO 1612/1615 4000 TSRA 
     BECMG 1615/1617 SCT050 
     BECMG 1623/1701 03005KT 
     TEMPO 1709/1712 SCT040CB
       
EFIV 161150Z AUTO 03007KT 9999 OVC042 11/03 Q1015
TAF EFIV 160537Z 1606/1610 24007KT 9999 FEW035 BKN050
       
EFJO 161150Z AUTO 04006KT 360V080 CAVOK 17/09 Q1011
TAF EFJO 161130Z 1612/1616 05004KT 9999 SCT040 BKN085 
     PROB40 
     TEMPO 1612/1615 SCT050CB
       
EFJY 161150Z AUTO 10009KT 050V160 9999 FEW041 20/09 Q1009
TAF EFJY 161137Z 1612/1712 10009KT 9999 FEW040 
     TEMPO 1612/1618 SHRA SCT040CB 
     PROB40 
     TEMPO 1613/1617 5000 TSRA 
     PROB30 1700/1703 3000 BCFG 
     BECMG 1708/1710 FEW045TCU 
     PROB30 1710/1712 FEW050CB
       
EFKI 161150Z AUTO 34008KT 320V020 CAVOK 17/04 Q1012
TAF EFKI 161130Z 1612/1621 05005KT CAVOK
       
EFKE 161150Z AUTO 07005KT 010V120 9999 VCSH OVC038 //////CB 15/08 Q1013
TAF EFKE 161130Z 1612/1618 33004KT 9999 SCT040 
     TEMPO 1612/1615 SHRA SCT040CB
       
EFKT 161150Z AUTO 03006KT 340V090 CAVOK 15/03 Q1014
TAF EFKT 160820Z 1609/1612 05005KT 9999 FEW030 BKN085
       
EFKK 161150Z AUTO 06007KT 020V090 CAVOK 18/08 Q1011
TAF COR EFKK 161145Z 1612/1621 04008KT 9999 FEW045 BKN090 
     PROB40 
     TEMPO 1612/1621 7000 SHRA SCT045CB
       
EFKU 161150Z AUTO 06006KT CAVOK 17/08 Q1011
TAF EFKU 161130Z 1612/1712 06007KT CAVOK 
     PROB30 
     TEMPO 1612/1615 SCT050CB
       
EFKS 161150Z AUTO 35008KT 310V050 9999 FEW041 BKN082 13/06 Q1013
TAF EFKS 160820Z 1609/1613 06006KT 9999 SCT025 
     TEMPO 1609/1613 7000 -SHRA BKN025CB
       
EFLP 161150Z AUTO VRB05KT CAVOK 20/09 Q1009
EFMA 161150Z AUTO VRB02KT 9999 SCT019 BKN060 14/10 Q1006
TAF EFMA 161135Z 1612/1621 30003KT 9999 SCT020 
     PROB30 
     TEMPO 1612/1615 FEW025TCU
       
EFMI 161150Z AUTO 09007KT 050V120 9999 -SHRA FEW034 BKN098 16/11 Q1010
EFOU 161150Z AUTO 05005KT 350V160 CAVOK 19/04 Q1012
TAF EFOU 161130Z 1612/1712 08007KT CAVOK 
     TEMPO 1706/1712 7000 SHRA SCT040CB 
     PROB30 1708/1712 TSRA
       
EFPO 161150Z AUTO 14008KT 100V170 9999 -RA FEW012/// SCT026/// BKN034/// 16/14 Q1006
TAF EFPO 161137Z 1612/1614 12009KT 9999 BKN035 
     TEMPO 1612/1614 SHRA BKN030CB 
     PROB30 
     TEMPO 1612/1614 6000
       
EFRO 161150Z AUTO 06007KT 010V110 CAVOK 15/05 Q1013
TAF EFRO 161130Z 1612/1712 08007KT 9999 SCT030 BKN075 
     TEMPO 1612/1618 8000 -SHRA BKN035TCU
       
EFSA 161150Z AUTO 11007KT 070V140 9999 FEW045 BKN066 19/09 Q1010
TAF EFSA 161130Z 1612/1618 09007KT 9999 SCT045 
     PROB30 
     TEMPO 1612/1615 SCT050CB
       
EFSI 161150Z AUTO 04006KT 360V080 9999 -SHRA FEW045 BKN080 BKN095 16/12 Q1009
EFTP 161150Z AUTO 09009KT CAVOK 20/12 Q1007
TAF EFTP 161137Z 1612/1712 10009KT 9999 SCT035 
     TEMPO 1612/1618 SHRA BKN035CB 
     PROB40 
     TEMPO 1612/1618 5000 TSRA 
     BECMG 1708/1710 FEW045TCU 
     PROB40 1710/1712 SHRA FEW050CB
       
EFTU 161150Z AUTO 11013KT 080V140 9999 VCSH SCT015 BKN071 BKN086 //////CB 17/14 Q1005
TAF EFTU 161135Z 1612/1712 08006KT 9999 SCT018 SCT020CB 
     TEMPO 1612/1619 7000 SHRA 
     PROB40 
     TEMPO 1612/1619 4000 TSRA BKN012 
     BECMG 1619/1620 FEW012 SCT050 
     PROB30 
     TEMPO 1621/1701 3000 BR BKN002 
     PROB40 
     TEMPO 1709/1712 FEW040CB
       
EFUT 161150Z 16011KT 130V190 9999 SCT050TCU 22/08 Q1008
TAF EFUT 160841Z 1609/1613 14007KT CAVOK 
     TEMPO 1609/1613 SCT050CB
       
EFVA 161150Z AUTO 04010KT 9999 BKN041 18/10 Q1009
TAF EFVA 161137Z 1612/1712 04009KT 9999 BKN040 
     TEMPO 1612/1624 6000 SHRA SCT035CB 
     PROB30 
     TEMPO 1614/1624 TSRA 
     TEMPO 1700/1708 5000 SHRA BKN005 BKN050CB 
     BECMG 1708/1710 6000 BKN005 
     BECMG 1710/1712 9999 BKN015